Time;durP1;ratioP1;P1;durP2;ratioP2;P2;SDS_P1;SDS_P2;PMS_P1;PMS_P2;Temp;Humidity;BMP_temperature;BMP_pressure;BME280_temperature;BME280_humidity;BME280_pressure;Samples;Min_cycle;Max_cycle;Signal;HPM_P1;HPM_P2
2022/09/04 00:00:11;;;;;;;8.63;7.70;;;;;;;14.86;99.00;101425.75;5092311;28;20023;-74
2022/09/04 00:02:42;;;;;;;13.05;8.45;;;;;;;14.86;98.72;101436.47;5092105;28;20024;-74
2022/09/04 00:05:19;;;;;;;13.90;8.70;;;;;;;14.84;100.00;101438.44;5073655;28;20423;-74
2022/09/04 00:08:02;;;;;;;9.63;8.15;;;;;;;14.81;100.00;101432.41;5091948;28;20024;-74
2022/09/04 00:10:36;;;;;;;12.02;8.48;;;;;;;14.78;100.00;101440.75;5092135;28;20039;-74
2022/09/04 00:13:22;;;;;;;13.60;8.85;;;;;;;14.77;100.00;101441.72;5073666;28;20055;-75
2022/09/04 00:15:54;;;;;;;9.00;8.10;;;;;;;14.73;100.00;101448.38;5091649;28;20143;-75
2022/09/04 00:18:24;;;;;;;10.23;8.68;;;;;;;14.71;100.00;101453.06;5091878;28;20055;-75
2022/09/04 00:20:55;;;;;;;9.98;8.95;;;;;;;14.67;100.00;101451.66;5073244;28;20123;-75
2022/09/04 00:23:28;;;;;;;;;;;;;;;14.65;100.00;101452.81;5073779;28;20067;-75
2022/09/04 00:26:24;;;;;;;15.18;8.35;;;;;;;14.62;100.00;101446.75;5091845;28;19916;-75
2022/09/04 00:28:54;;;;;;;10.88;8.60;;;;;;;14.61;100.00;101449.59;5091581;28;20115;-75
2022/09/04 00:31:41;;;;;;;14.30;8.75;;;;;;;14.60;100.00;101448.72;5073611;28;20132;-76
2022/09/04 00:34:17;;;;;;;13.60;9.18;;;;;;;14.61;100.00;101462.97;5091664;28;20030;-75
2022/09/04 00:36:49;;;;;;;13.10;9.52;;;;;;;14.57;100.00;101457.06;5091841;28;20102;-76
2022/09/04 00:39:22;;;;;;;9.38;8.38;;;;;;;14.54;100.00;101464.53;5091897;28;20039;-76
2022/09/04 00:42:18;;;;;;;10.07;8.57;;;;;;;14.50;100.00;101465.84;5091603;28;20028;-75
2022/09/04 00:44:56;;;;;;;8.80;7.63;;;;;;;14.45;100.00;101468.94;5091583;28;20126;-75
2022/09/04 00:47:50;;;;;;;10.60;8.55;;;;;;;14.44;100.00;101470.78;5072230;28;20050;-75
2022/09/04 00:50:35;;;;;;;9.18;8.25;;;;;;;14.44;100.00;101472.63;5092873;28;20108;-75
2022/09/04 00:53:36;;;;;;;10.73;9.00;;;;;;;14.42;100.00;101474.59;5091865;28;20024;-76
2022/09/04 00:56:24;;;;;;;10.05;8.30;;;;;;;14.41;100.00;101480.97;5091072;28;20107;-75
2022/09/04 00:59:08;;;;;;;16.33;9.30;;;;;;;14.40;100.00;101474.75;5091269;28;20103;-76
2022/09/04 01:01:33;;;;;;;10.25;9.00;;;;;;;14.40;100.00;101474.75;5091107;28;20039;-75
2022/09/04 01:04:18;;;;;;;11.35;8.90;;;;;;;14.41;100.00;101478.28;5072690;28;20024;-74
2022/09/04 01:06:46;;;;;;;9.35;7.70;;;;;;;14.41;100.00;101483.66;5090779;28;20458;-75
2022/09/04 01:09:25;;;;;;;15.88;8.73;;;;;;;14.41;100.00;101492.50;5090846;28;20036;-75
2022/09/04 01:12:06;;;;;;;9.48;8.50;;;;;;;14.41;100.00;101484.47;5090673;28;20118;-75
2022/09/04 01:14:54;;;;;;;8.40;7.60;;;;;;;14.40;100.00;101493.50;5090973;28;20024;-75
2022/09/04 01:17:43;;;;;;;11.55;8.80;;;;;;;14.42;100.00;101507.59;5090425;28;20474;-75
2022/09/04 01:20:19;;;;;;;12.05;8.23;;;;;;;14.42;100.00;101493.34;5090693;28;20089;-75
2022/09/04 01:23:24;;;;;;;11.52;8.68;;;;;;;14.50;100.00;101487.28;5090673;28;20031;-76
2022/09/04 01:26:11;;;;;;;14.60;10.43;;;;;;;14.60;100.00;101502.28;5090368;28;20107;-76
2022/09/04 01:29:09;;;;;;;12.38;8.98;;;;;;;14.69;100.00;101499.72;5090010;28;20028;-76
2022/09/04 01:31:56;;;;;;;11.45;8.82;;;;;;;14.76;100.00;101498.13;5090406;28;20035;-75
2022/09/04 01:34:33;;;;;;;11.52;8.43;;;;;;;14.80;100.00;101503.03;5090345;28;20416;-75
2022/09/04 01:37:23;;;;;;;12.20;10.50;;;;;;;14.81;100.00;101509.25;5071757;28;20372;-74
2022/09/04 01:40:12;;;;;;;15.48;9.60;;;;;;;14.78;100.00;101507.72;5071632;28;20028;-75
2022/09/04 01:42:50;;;;;;;16.95;9.95;;;;;;;14.71;100.00;101511.97;5090175;28;20121;-76
2022/09/04 01:45:40;;;;;;;12.82;10.27;;;;;;;14.66;100.00;101516.09;5090048;28;20032;-75
2022/09/04 01:48:09;;;;;;;9.95;8.80;;;;;;;14.58;100.00;101516.81;5090243;28;20393;-76
2022/09/04 01:50:37;;;;;;;11.15;9.90;;;;;;;14.50;100.00;101517.56;5089901;28;20024;-76
2022/09/04 01:53:05;;;;;;;19.48;12.20;;;;;;;14.43;100.00;101514.63;5090019;28;20139;-76
2022/09/04 01:55:59;;;;;;;15.73;12.50;;;;;;;14.40;100.00;101512.22;5089906;28;20131;-76
2022/09/04 01:58:37;;;;;;;17.17;13.32;;;;;;;14.37;100.00;101522.41;5089676;28;20024;-76
2022/09/04 02:01:17;;;;;;;15.40;13.05;;;;;;;14.32;100.00;101522.03;5089855;28;20083;-74
2022/09/04 02:04:06;;;;;;;18.20;12.77;;;;;;;14.27;100.00;101528.66;5089395;28;20020;-75
2022/09/04 02:06:53;;;;;;;14.98;13.05;;;;;;;14.23;100.00;101523.72;5089468;28;20340;-75
2022/09/04 02:09:21;;;;;;;16.52;13.27;;;;;;;14.21;100.00;101528.38;5089837;28;20020;-75
2022/09/04 02:11:58;;;;;;;21.73;12.95;;;;;;;14.16;100.00;101527.97;5089733;28;20466;-75
2022/09/04 02:14:27;;;;;;;15.30;13.70;;;;;;;14.11;100.00;101529.25;5089756;28;20093;-75
2022/09/04 02:17:07;;;;;;;15.98;12.63;;;;;;;14.04;100.00;101532.66;5089473;28;20028;-76
2022/09/04 02:20:07;;;;;;;17.33;14.02;;;;;;;13.98;100.00;101547.44;5089210;28;20423;-76
2022/09/04 02:22:38;;;;;;;18.75;14.40;;;;;;;13.93;100.00;101537.19;5089893;28;20055;-76
2022/09/04 02:25:04;;;;;;;;;;;;;;;13.92;100.00;101529.31;5089760;28;20035;-76
2022/09/04 02:27:35;;;;;;;19.70;14.60;;;;;;;13.87;100.00;101532.41;5089821;28;19908;-76
2022/09/04 02:30:01;;;;;;;;;;;;;;;13.85;100.00;101536.22;5089401;28;20403;-75
2022/09/04 02:32:55;;;;;;;15.40;12.70;;;;;;;13.79;100.00;101534.94;5089490;28;19919;-75
2022/09/04 02:35:38;;;;;;;17.67;14.43;;;;;;;13.77;100.00;101541.44;5052366;28;20040;-75
2022/09/04 02:38:25;;;;;;;17.02;14.85;;;;;;;13.75;100.00;101538.91;5089492;28;20107;-75
2022/09/04 02:40:58;;;;;;;17.00;15.20;;;;;;;13.74;100.00;101547.91;5089072;28;20047;-76
2022/09/04 02:43:42;;;;;;;22.00;15.07;;;;;;;13.74;100.00;101553.28;5089279;28;20047;-76
2022/09/04 02:46:24;;;;;;;15.27;13.50;;;;;;;13.73;100.00;101549.75;5070857;28;20482;-75
2022/09/04 02:48:52;;;;;;;;;;;;;;;13.71;100.00;101546.38;5089532;28;20020;-76
2022/09/04 02:51:36;;;;;;;16.73;13.95;;;;;;;13.72;100.00;101548.06;5089034;28;19924;-75
2022/09/04 02:54:05;;;;;;;14.55;12.93;;;;;;;13.71;100.00;101557.06;5089171;28;20073;-75
2022/09/04 02:56:51;;;;;;;20.38;13.90;;;;;;;13.74;100.00;101550.59;5088844;28;20031;-75
2022/09/04 02:59:30;;;;;;;17.42;13.43;;;;;;;13.76;100.00;101556.63;5089372;28;20039;-75
2022/09/04 03:02:02;;;;;;;18.75;14.77;;;;;;;13.76;100.00;101556.63;5088983;28;20049;-75
2022/09/04 03:04:48;;;;;;;16.50;13.60;;;;;;;13.73;100.00;101552.44;5088958;28;20115;-75
2022/09/04 03:07:32;;;;;;;15.88;14.27;;;;;;;13.71;100.00;101551.72;5089094;28;20084;-75
2022/09/04 03:10:18;;;;;;;16.38;14.68;;;;;;;13.69;100.00;101556.38;5089253;28;20024;-75
2022/09/04 03:12:50;;;;;;;17.35;15.40;;;;;;;13.70;100.00;101559.88;5093194;28;20091;-76
2022/09/04 03:15:34;;;;;;;17.50;14.60;;;;;;;13.67;100.00;101560.16;5093412;28;20077;-75
2022/09/04 03:18:09;;;;;;;17.48;14.95;;;;;;;13.64;100.00;101563.97;5093086;28;20034;-75
2022/09/04 03:20:56;;;;;;;16.88;15.07;;;;;;;13.64;100.00;101565.81;5093331;28;20567;-75
2022/09/04 03:23:43;;;;;;;24.67;17.08;;;;;;;13.63;100.00;101567.63;5093365;28;20031;-75
2022/09/04 03:26:26;;;;;;;18.33;15.32;;;;;;;13.60;100.00;101564.38;5092967;28;20085;-76
2022/09/04 03:29:01;;;;;;;17.90;15.40;;;;;;;13.58;100.00;101567.19;5093249;28;20028;-75
2022/09/04 03:31:31;;;;;;;17.10;15.02;;;;;;;13.56;100.00;101569.19;5093163;28;20084;-75
2022/09/04 03:34:11;;;;;;;20.33;17.50;;;;;;;13.57;100.00;101569.03;5093035;28;20024;-74
2022/09/04 03:36:48;;;;;;;21.77;16.40;;;;;;;13.54;100.00;101580.03;5093228;28;20102;-74
2022/09/04 03:39:28;;;;;;;17.73;14.90;;;;;;;13.54;100.00;101576.47;5092730;28;20168;-76
2022/09/04 03:42:05;;;;;;;18.80;16.73;;;;;;;13.52;100.00;101578.47;5092455;28;20088;-77
2022/09/04 03:45:01;;;;;;;22.50;16.88;;;;;;;13.49;100.00;101582.25;5074258;28;20327;-75
2022/09/04 03:48:03;;;;;;;18.73;16.70;;;;;;;13.47;100.00;101586.06;5092392;28;20058;-75
2022/09/04 03:50:44;;;;;;;22.42;16.63;;;;;;;13.46;100.00;101585.22;5092430;28;20023;-75
2022/09/04 03:53:28;;;;;;;26.83;17.07;;;;;;;13.45;100.00;101588.88;5092163;28;20072;-75
2022/09/04 03:56:14;;;;;;;18.95;15.70;;;;;;;13.40;100.00;101591.13;5092766;28;20634;-76
2022/09/04 03:58:57;;;;;;;21.90;16.80;;;;;;;13.38;100.00;101593.09;5093873;28;20024;-75
2022/09/04 04:01:29;;;;;;;18.52;15.48;;;;;;;13.37;100.00;101599.41;5093394;28;20130;-76
2022/09/04 04:03:57;;;;;;;;;;;;;;;13.35;100.00;101599.56;5092761;28;20054;-75
2022/09/04 04:06:29;;;;;;;16.65;14.63;;;;;;;13.36;100.00;101601.25;5092394;28;20023;-74
2022/09/04 04:09:10;;;;;;;16.88;14.50;;;;;;;13.35;100.00;101604.06;5092155;28;20024;-75
2022/09/04 04:11:44;;;;;;;22.15;16.00;;;;;;;13.36;100.00;101603.06;5092370;28;20157;-75
2022/09/04 04:14:34;;;;;;;17.90;15.35;;;;;;;13.35;100.00;101602.22;5073749;28;20024;-74
2022/09/04 04:17:21;;;;;;;21.92;17.08;;;;;;;13.37;100.00;101604.75;5092163;28;20119;-76
2022/09/04 04:20:03;;;;;;;21.45;17.05;;;;;;;13.37;100.00;101596.75;5092259;28;20171;-75
2022/09/04 04:22:51;;;;;;;22.70;18.35;;;;;;;13.36;100.00;101603.06;5091444;28;20110;-75
2022/09/04 04:25:32;;;;;;;20.23;16.60;;;;;;;13.32;100.00;101598.97;5091540;28;20020;-76
2022/09/04 04:28:16;;;;;;;21.13;17.63;;;;;;;13.31;100.00;101603.44;5091489;28;20085;-76
2022/09/04 04:30:51;;;;;;;19.35;16.15;;;;;;;13.28;100.00;101614.41;5057781;28;20028;-76
2022/09/04 04:33:44;;;;;;;18.90;15.73;;;;;;;13.26;100.00;101613.72;5091420;28;20060;-74
2022/09/04 04:36:24;;;;;;;21.45;16.92;;;;;;;13.27;100.00;101614.56;5072796;28;20128;-75
2022/09/04 04:38:59;;;;;;;20.45;17.83;;;;;;;13.27;100.00;101625.25;5091337;28;20016;-75
2022/09/04 04:42:02;;;;;;;24.27;17.25;;;;;;;13.25;100.00;101620.03;5091274;28;20024;-75
2022/09/04 04:45:48;;;;;;;17.70;15.65;;;;;;;13.24;100.00;101613.00;5090997;28;20032;-76
2022/09/04 04:47:41;;;;;;;22.48;17.23;;;;;;;13.24;100.00;101618.34;5091329;28;20328;-75
2022/09/04 04:50:15;;;;;;;21.02;16.55;;;;;;;13.25;100.00;101624.53;5090288;28;20032;-76
2022/09/04 04:53:15;;;;;;;17.08;14.50;;;;;;;13.26;100.00;101628.91;5072904;28;20341;-75
2022/09/04 04:55:52;;;;;;;20.35;16.65;;;;;;;13.25;100.00;101624.53;5091161;28;20082;-75
2022/09/04 04:58:20;;;;;;;24.20;19.17;;;;;;;13.29;100.00;101625.97;5090828;28;20082;-76
2022/09/04 05:00:54;;;;;;;22.58;17.50;;;;;;;13.28;100.00;101630.44;5091766;28;20020;-76
2022/09/04 05:03:52;;;;;;;21.65;18.58;;;;;;;13.28;100.00;101626.94;5091662;28;20050;-76
2022/09/04 05:06:27;;;;;;;22.33;17.67;;;;;;;13.28;100.00;101627.78;5073537;28;20175;-76
2022/09/04 05:09:36;;;;;;;26.85;19.98;;;;;;;13.31;100.00;101635.50;5092423;28;20421;-76
2022/09/04 05:12:27;;;;;;;21.83;18.17;;;;;;;13.28;100.00;101641.13;5043139;28;20043;-75
2022/09/04 05:15:25;;;;;;;21.50;16.40;;;;;;;13.26;100.00;101648.47;5091321;28;20428;-76
2022/09/04 05:17:58;;;;;;;26.58;19.60;;;;;;;13.27;100.00;101651.97;5071635;28;20051;-74
2022/09/04 05:20:44;;;;;;;24.27;20.88;;;;;;;13.32;100.00;101661.28;5091179;28;20044;-75
2022/09/04 05:23:24;;;;;;;25.83;20.23;;;;;;;13.37;100.00;101664.41;5091317;28;20032;-75
2022/09/04 05:26:02;;;;;;;24.25;20.45;;;;;;;13.37;100.00;101671.59;5090976;28;20088;-75
2022/09/04 05:28:32;;;;;;;22.38;19.80;;;;;;;13.33;100.00;101673.66;5091518;28;20164;-75
2022/09/04 05:31:08;;;;;;;26.30;20.70;;;;;;;13.31;100.00;101670.25;5092006;28;20028;-75
2022/09/04 05:33:52;;;;;;;28.58;22.55;;;;;;;13.34;100.00;101678.03;5092578;28;20027;-74
2022/09/04 05:36:31;;;;;;;25.60;20.45;;;;;;;13.39;100.00;101686.50;5092384;28;20024;-76
2022/09/04 05:39:27;;;;;;;28.65;22.00;;;;;;;13.43;100.00;101687.06;5091762;28;20122;-76
2022/09/04 05:42:20;;;;;;;26.65;21.77;;;;;;;13.48;100.00;101692.00;5091018;28;20024;-75
2022/09/04 05:45:09;;;;;;;28.45;21.80;;;;;;;13.50;100.00;101703.41;5090813;28;20128;-75
2022/09/04 05:47:49;;;;;;;24.13;20.35;;;;;;;13.53;100.00;101695.97;5090992;28;20038;-75
2022/09/04 05:50:35;;;;;;;28.00;20.05;;;;;;;13.57;100.00;101701.91;5072418;28;20046;-76
2022/09/04 05:53:19;;;;;;;28.48;22.25;;;;;;;13.63;100.00;101697.78;5090865;28;20031;-76
2022/09/04 05:55:47;;;;;;;27.55;21.08;;;;;;;13.68;100.00;101699.09;5090428;28;20347;-75
2022/09/04 05:58:31;;;;;;;27.33;21.30;;;;;;;13.74;100.00;101703.88;5091192;28;20177;-76
2022/09/04 06:01:18;;;;;;;24.85;21.55;;;;;;;13.81;100.00;101703.31;5090330;28;20031;-75
2022/09/04 06:04:19;;;;;;;24.73;20.00;;;;;;;13.87;100.00;101708.13;5091196;28;20035;-75
2022/09/04 06:06:55;;;;;;;27.13;21.05;;;;;;;13.94;100.00;101709.22;5036600;28;20032;-75
2022/09/04 06:09:49;;;;;;;25.23;20.38;;;;;;;14.05;100.00;101714.47;5090521;28;20012;-75
2022/09/04 06:12:25;;;;;;;26.42;20.40;;;;;;;14.15;100.00;101713.63;5067502;28;20067;-75
2022/09/04 06:15:14;;;;;;;24.20;20.15;;;;;;;14.27;100.00;101717.81;5090613;28;20442;-75
2022/09/04 06:17:58;;;;;;;25.67;18.90;;;;;;;14.40;100.00;101721.06;5090505;28;20110;-76
2022/09/04 06:20:45;;;;;;;26.50;20.33;;;;;;;14.50;100.00;101715.69;5090107;28;20052;-75
2022/09/04 06:23:33;;;;;;;23.90;19.42;;;;;;;14.61;100.00;101717.41;5090646;28;20051;-75
2022/09/04 06:26:10;;;;;;;24.20;19.02;;;;;;;14.71;100.00;101717.38;5090243;28;20120;-76
2022/09/04 06:29:00;;;;;;;22.52;18.38;;;;;;;14.80;100.00;101720.03;5090531;28;20028;-75
2022/09/04 06:31:26;;;;;;;22.17;18.20;;;;;;;14.93;100.00;101724.25;5090424;28;20110;-74
2022/09/04 06:33:54;;;;;;;20.90;18.60;;;;;;;15.03;100.00;101727.69;5090242;28;20062;-76
2022/09/04 06:36:34;;;;;;;25.00;18.13;;;;;;;15.15;100.00;101726.53;5071584;28;20122;-76
2022/09/04 06:39:02;;;;;;;22.97;18.63;;;;;;;15.29;100.00;101727.88;5090306;28;20032;-76
2022/09/04 06:41:37;;;;;;;23.67;17.30;;;;;;;15.43;100.00;101736.44;5089834;28;20308;-75
2022/09/04 06:44:20;;;;;;;20.55;16.63;;;;;;;15.59;100.00;101741.16;5090099;28;20024;-76
2022/09/04 06:47:10;;;;;;;22.02;17.80;;;;;;;15.78;100.00;101733.00;5088988;28;20028;-75
2022/09/04 06:49:35;;;;;;;27.77;17.40;;;;;;;15.93;100.00;101737.84;5089211;28;20056;-75
2022/09/04 06:52:25;;;;;;;23.75;18.23;;;;;;;16.09;100.00;101739.84;5089519;28;20024;-76
2022/09/04 06:55:09;;;;;;;22.27;17.92;;;;;;;16.24;100.00;101738.28;5089269;28;20066;-75
2022/09/04 06:57:42;;;;;;;22.67;17.30;;;;;;;16.40;100.00;101743.81;5089257;28;20073;-75
2022/09/04 07:00:10;;;;;;;21.35;16.67;;;;;;;16.54;100.00;101747.78;5089575;28;20058;-76
2022/09/04 07:03:00;;;;;;;22.48;17.70;;;;;;;16.71;100.00;101755.97;5089535;28;20405;-75
2022/09/04 07:06:03;;;;;;;24.00;16.67;;;;;;;16.90;100.00;101750.41;5089550;28;20161;-77
2022/09/04 07:08:50;;;;;;;26.95;17.70;;;;;;;17.09;100.00;101754.72;5090876;28;20020;-77
2022/09/04 07:11:15;;;;;;;22.20;17.45;;;;;;;17.27;100.00;101759.16;5091008;28;20034;-77
2022/09/04 07:14:15;;;;;;;23.20;17.50;;;;;;;17.42;100.00;101760.25;5090435;28;20024;-76
2022/09/04 07:16:49;;;;;;;27.05;17.80;;;;;;;17.62;100.00;101762.69;5088146;28;20036;-75
2022/09/04 07:19:43;;;;;;;22.05;17.45;;;;;;;17.80;100.00;101760.72;5090401;28;20040;-76
2022/09/04 07:22:50;;;;;;;24.60;17.73;;;;;;;18.01;100.00;101764.00;5090467;28;20024;-74
2022/09/04 07:25:43;;;;;;;24.45;18.05;;;;;;;18.22;100.00;101763.50;5072093;28;20082;-76
2022/09/04 07:28:37;;;;;;;22.50;19.05;;;;;;;18.40;100.00;101766.03;5072139;28;20024;-76
2022/09/04 07:31:15;;;;;;;26.77;19.35;;;;;;;18.59;100.00;101768.41;5089768;28;20035;-77
2022/09/04 07:33:44;;;;;;;29.88;21.20;;;;;;;18.77;100.00;101764.69;5090020;28;20028;-75
2022/09/04 07:36:19;;;;;;;26.30;20.52;;;;;;;18.94;100.00;101774.44;5089806;28;20035;-76
2022/09/04 07:38:59;;;;;;;24.25;19.98;;;;;;;19.11;100.00;101771.69;5090076;28;20047;-76
2022/09/04 07:41:40;;;;;;;27.45;20.88;;;;;;;19.31;100.00;101777.56;5071809;28;20340;-77
2022/09/04 07:44:19;;;;;;;29.92;21.48;;;;;;;19.49;100.00;101786.22;5090147;28;20440;-76
2022/09/04 07:46:50;;;;;;;26.17;19.92;;;;;;;19.71;100.00;101781.91;5090641;28;20024;-75
2022/09/04 07:49:41;;;;;;;27.92;20.38;;;;;;;19.96;100.00;101786.38;5089564;28;20053;-76
2022/09/04 07:52:09;;;;;;;;;;;;;;;20.30;100.00;101785.13;5090043;28;20062;-75
2022/09/04 07:55:01;;;;;;;25.95;22.67;;;;;;;20.58;99.80;101788.94;5090127;28;19907;-76
2022/09/04 07:57:42;;;;;;;28.88;22.63;;;;;;;20.82;98.51;101788.94;5092393;28;20020;-76
2022/09/04 08:00:13;;;;;;;28.67;22.30;;;;;;;21.02;97.01;101798.22;5093647;28;20024;-75
2022/09/04 08:02:45;;;;;;;29.77;23.08;;;;;;;21.20;96.70;101797.84;5093567;28;20023;-75
2022/09/04 08:05:18;;;;;;;33.80;24.00;;;;;;;21.40;95.61;101802.69;5093621;28;20074;-76
2022/09/04 08:08:02;;;;;;;33.67;24.35;;;;;;;21.61;94.85;101800.06;5075014;28;20131;-76
2022/09/04 08:11:11;;;;;;;28.60;24.27;;;;;;;22.14;91.78;101802.56;5075052;28;20109;-76
2022/09/04 08:14:12;;;;;;;34.75;29.02;;;;;;;22.69;88.83;101800.19;5059529;28;20127;-76
2022/09/04 08:17:25;;;;;;;40.28;33.35;;;;;;;23.22;83.25;101794.28;5020229;28;20041;-76
2022/09/04 08:20:22;;;;;;;37.60;30.38;;;;;;;23.51;81.34;101802.38;5092954;28;20040;-75
2022/09/04 08:22:53;;;;;;;32.70;26.63;;;;;;;23.79;79.24;101806.88;5033723;28;20043;-77
2022/09/04 08:25:26;;;;;;;36.63;30.25;;;;;;;24.03;74.40;101805.53;5092843;28;20028;-76
2022/09/04 08:28:32;;;;;;;36.75;30.45;;;;;;;23.94;77.43;101807.59;5093089;28;20028;-76
2022/09/04 08:31:12;;;;;;;34.55;26.90;;;;;;;24.27;75.47;101804.97;5047464;28;20039;-75
2022/09/04 08:34:09;;;;;;;38.75;31.52;;;;;;;24.28;73.83;101808.50;5092425;28;20024;-75
2022/09/04 08:36:47;;;;;;;40.15;30.52;;;;;;;24.22;75.46;101810.16;5093181;28;20413;-76
2022/09/04 08:39:18;;;;;;;35.25;31.10;;;;;;;24.26;76.91;101816.03;5074509;28;20028;-76
2022/09/04 08:41:55;;;;;;;;;;;;;;;24.55;75.60;101825.69;5093231;28;20102;-76
2022/09/04 08:44:58;;;;;;;36.38;30.38;;;;;;;25.02;74.67;101824.84;5092835;28;19908;-75
2022/09/04 08:48:06;;;;;;;35.17;28.27;;;;;;;25.26;71.55;101826.06;5092820;28;20035;-76
2022/09/04 08:50:50;;;;;;;35.92;31.77;;;;;;;25.50;68.61;101828.13;5092638;28;20454;-76
2022/09/04 08:53:30;;;;;;;40.42;32.33;;;;;;;25.97;67.98;101821.63;5092453;28;20405;-74
2022/09/04 08:56:07;;;;;;;37.50;29.58;;;;;;;26.29;64.15;101830.69;5092184;28;20039;-75
2022/09/04 08:58:45;;;;;;;40.72;31.98;;;;;;;26.37;62.84;101829.59;5092184;28;20321;-76
2022/09/04 09:01:22;;;;;;;36.50;30.67;;;;;;;26.78;61.88;101828.22;5073920;28;20059;-76
2022/09/04 09:04:24;;;;;;;35.55;30.73;;;;;;;27.38;59.89;101829.53;5073541;28;20027;-75
2022/09/04 09:07:18;;;;;;;36.60;30.13;;;;;;;28.02;57.28;101824.56;5090861;28;20253;-75
2022/09/04 09:10:20;;;;;;;35.67;29.60;;;;;;;28.38;53.78;101830.13;5090651;28;20423;-75
2022/09/04 09:13:07;;;;;;;30.92;26.45;;;;;;;29.21;51.34;101839.28;5090729;28;20044;-75
2022/09/04 09:15:41;;;;;;;36.13;27.23;;;;;;;29.66;48.88;101830.38;5072280;28;20028;-76
2022/09/04 09:18:22;;;;;;;31.42;26.60;;;;;;;30.20;50.46;101840.16;5072731;28;20385;-75
2022/09/04 09:21:06;;;;;;;;;;;;;;;30.66;46.93;101829.97;5091484;28;20071;-76
2022/09/04 09:23:37;;;;;;;33.58;24.95;;;;;;;30.92;45.72;101831.22;5091761;28;19916;-76
2022/09/04 09:26:37;;;;;;;33.78;24.52;;;;;;;30.90;45.25;101832.53;5091377;28;20016;-75
2022/09/04 09:29:21;;;;;;;;;;;;;;;31.26;45.44;101831.19;5091975;28;20085;-75
2022/09/04 09:32:06;;;;;;;30.77;22.98;;;;;;;31.71;42.70;101836.69;5090977;28;19915;-75
2022/09/04 09:35:08;;;;;;;32.53;21.58;;;;;;;31.56;43.42;101834.56;5073183;28;20111;-76
2022/09/04 09:37:58;;;;;;;28.25;23.33;;;;;;;31.38;43.66;101830.19;5091381;28;20047;-76
2022/09/04 09:40:56;;;;;;;26.20;19.00;;;;;;;31.38;42.61;101839.31;5090919;28;20027;-75
2022/09/04 09:43:45;;;;;;;21.15;17.55;;;;;;;31.27;42.32;101832.81;5091569;28;20016;-75
2022/09/04 09:46:52;;;;;;;22.80;16.65;;;;;;;31.46;42.43;101838.03;5091213;28;20019;-75
2022/09/04 09:49:50;;;;;;;25.50;18.90;;;;;;;31.61;42.42;101840.16;5072377;28;20072;-74
2022/09/04 09:52:27;;;;;;;26.45;18.10;;;;;;;31.87;42.51;101835.75;5091086;28;20413;-77
2022/09/04 09:55:02;;;;;;;22.58;18.15;;;;;;;31.63;40.78;101840.72;5090621;28;20035;-77
2022/09/04 09:57:57;;;;;;;21.63;16.77;;;;;;;31.40;41.89;101836.28;5090623;28;20036;-77
2022/09/04 10:00:26;;;;;;;28.52;21.88;;;;;;;31.79;41.37;101837.06;5090553;28;20034;-78
2022/09/04 10:03:00;;;;;;;29.23;22.15;;;;;;;31.70;41.87;101835.03;5072217;28;20440;-79
2022/09/04 10:05:59;;;;;;;27.30;20.02;;;;;;;31.75;41.47;101835.91;5090566;28;20028;-78
2022/09/04 10:09:13;;;;;;;28.65;19.65;;;;;;;31.76;40.70;101842.25;5090559;28;20039;-78
2022/09/04 10:12:15;;;;;;;26.13;18.15;;;;;;;31.40;41.12;101830.81;5090310;28;20119;-78
2022/09/04 10:15:08;;;;;;;26.05;17.52;;;;;;;31.97;40.62;101830.34;5090800;28;20036;-79
2022/09/04 10:18:07;;;;;;;30.95;20.30;;;;;;;31.99;39.88;101835.59;5090715;28;20042;-78
2022/09/04 10:20:48;;;;;;;24.60;18.63;;;;;;;32.13;39.38;101836.88;5091588;28;20048;-78
2022/09/04 10:23:45;;;;;;;26.85;18.85;;;;;;;32.08;39.86;101835.97;5090806;28;20028;-79
2022/09/04 10:26:26;;;;;;;23.52;17.20;;;;;;;31.97;39.56;101838.63;5089104;28;20055;-80
2022/09/04 10:29:25;;;;;;;26.80;16.73;;;;;;;31.88;39.69;101837.44;5091276;28;20050;-79
2022/09/04 10:32:09;;;;;;;18.13;13.90;;;;;;;32.50;37.70;101835.25;5072284;28;20444;-79
2022/09/04 10:34:40;;;;;;;17.40;14.02;;;;;;;32.60;37.30;101838.09;5071747;28;20028;-78
2022/09/04 10:37:30;;;;;;;23.08;14.15;;;;;;;32.26;39.07;101840.28;5089825;28;20032;-76
2022/09/04 10:43:00;;;;;;;17.75;10.95;;;;;;;29.70;44.30;101839.75;5089311;28;20042;-77
2022/09/04 10:45:40;;;;;;;19.00;14.50;;;;;;;29.62;45.38;101844.78;5089341;28;20028;-78
2022/09/04 10:48:33;;;;;;;26.45;16.95;;;;;;;30.45;44.81;101845.28;5089045;28;20161;-78
2022/09/04 10:51:19;;;;;;;22.67;17.40;;;;;;;31.36;43.24;101843.38;5088767;28;20115;-78
2022/09/04 10:54:04;;;;;;;25.45;17.02;;;;;;;32.42;39.60;101847.59;5088864;28;20047;-77
2022/09/04 10:56:58;;;;;;;22.67;17.75;;;;;;;32.63;38.43;101845.84;5088998;28;20028;-78
2022/09/04 10:59:41;;;;;;;18.48;11.63;;;;;;;31.81;38.94;101847.78;5070812;28;20387;-78
2022/09/04 11:02:17;;;;;;;12.52;8.77;;;;;;;31.22;38.76;101849.25;5089610;28;20440;-77
2022/09/04 11:05:05;;;;;;;13.98;10.95;;;;;;;30.06;41.95;101847.88;5089863;28;20382;-77
2022/09/04 11:07:43;;;;;;;17.60;11.75;;;;;;;29.30;43.07;101851.53;5089553;28;20138;-78
2022/09/04 11:10:29;;;;;;;17.65;11.55;;;;;;;28.74;45.99;101844.72;5089683;28;20035;-77
2022/09/04 11:13:22;;;;;;;14.60;10.55;;;;;;;28.90;45.95;101849.50;5071342;28;20114;-78
2022/09/04 11:16:10;;;;;;;14.45;9.52;;;;;;;28.27;47.34;101853.66;5089101;28;20371;-78
2022/09/04 11:18:59;;;;;;;12.73;8.15;;;;;;;27.88;48.80;101847.66;5071866;28;20032;-76
2022/09/04 11:21:49;;;;;;;12.82;9.45;;;;;;;27.40;49.91;101855.56;5089450;28;20491;-78
2022/09/04 11:24:44;;;;;;;14.75;7.80;;;;;;;27.18;52.77;101854.31;5089513;28;20380;-78
2022/09/04 11:27:34;;;;;;;24.17;16.67;;;;;;;26.88;56.58;101858.59;5089612;28;20031;-78
2022/09/04 11:30:14;;;;;;;28.20;19.30;;;;;;;26.56;59.48;101849.59;5089229;28;20562;-78
2022/09/04 11:32:50;;;;;;;34.55;20.60;;;;;;;26.15;61.63;101849.00;5092816;28;20419;-79
2022/09/04 11:35:38;;;;;;;26.05;20.63;;;;;;;25.74;64.08;101854.84;5093362;28;20032;-78
2022/09/04 11:38:29;;;;;;;25.42;20.60;;;;;;;25.59;63.66;101853.25;5093120;28;20059;-77
2022/09/04 11:41:15;;;;;;;32.00;21.10;;;;;;;25.73;63.92;101856.75;5093278;28;20028;-76
2022/09/04 11:44:02;;;;;;;29.23;21.60;;;;;;;25.67;63.99;101852.16;5093256;28;20108;-77
2022/09/04 11:47:11;;;;;;;29.15;21.60;;;;;;;26.00;63.25;101848.47;5074321;28;20046;-78
2022/09/04 11:50:01;;;;;;;27.73;21.65;;;;;;;27.07;58.29;101845.81;5093027;28;20032;-78
2022/09/04 11:52:52;;;;;;;26.75;19.90;;;;;;;27.51;56.80;101843.03;5074530;28;20328;-78
2022/09/04 11:55:21;;;;;;;26.27;20.10;;;;;;;27.50;56.44;101846.88;5092826;28;20043;-79
2022/09/04 11:58:13;;;;;;;24.85;17.40;;;;;;;27.33;57.91;101848.53;5092820;28;20198;-79
2022/09/04 12:01:16;;;;;;;19.75;16.58;;;;;;;27.42;59.06;101842.53;5093183;28;20032;-79
2022/09/04 12:03:55;;;;;;;20.58;15.25;;;;;;;27.37;58.56;101850.56;5074462;28;20450;-78
2022/09/04 12:06:34;;;;;;;23.45;16.20;;;;;;;27.06;59.23;101844.13;5092952;28;20059;-78
2022/09/04 12:09:32;;;;;;;20.23;15.90;;;;;;;26.77;58.51;101855.75;5092641;28;20083;-79
2022/09/04 12:12:13;;;;;;;24.52;16.80;;;;;;;26.54;60.82;101860.75;5092574;28;20051;-78
2022/09/04 12:15:13;;;;;;;21.60;16.42;;;;;;;26.88;60.23;101855.84;5092758;28;20051;-78
2022/09/04 12:17:55;;;;;;;26.35;17.13;;;;;;;27.72;56.67;101854.56;5092363;28;20032;-78
2022/09/04 12:20:29;;;;;;;19.52;15.65;;;;;;;28.10;54.76;101862.53;5092413;28;20044;-78
2022/09/04 12:23:31;;;;;;;18.67;14.20;;;;;;;28.09;54.83;101862.75;5092125;28;20028;-78
2022/09/04 12:26:12;;;;;;;23.83;15.35;;;;;;;28.06;55.59;101868.69;5076891;28;20468;-78